Terminal Aerodrome Forecast
Issued by NWS Brownsville, TX

Home | Current Version | Previous Version | Text Only | Print | Product List | Glossary On
Versions: 1 2 3 4 5 6 7 8 9 10 11 12 13 14 15 16 17 18 19 20
000
FTUS44 KBRO 222300 RRA
TAFBRO
TAF
KBRO 222342Z 2300/2324 13010KT P6SM SKC
     FM230400 14005KT P6SM SKC
     FM231000 14005KT P6SM SCT015
     FM231400 15013KT P6SM SCT035=

USA.gov is the U.S. government's official web portal to all federal, state and local government web resources and services.